Humidity-temperature Sensor

Selected Measurement Type: Relative Humidity

 
Relative Humidity [%]     6 entries per hour
Showing data from 3/25/2015 (00:00:00 Z) to 3/24/2015 (00:01:00 Z)
Previous Next [ Day | 3-Days | 7-Days ]
First Last
Prev [ Day | 3-Days | 7-Days ] Next
First Last

Start Time:     :
End Time:     :     
Time (in GMT) :00 :50 :40 :30 :20 :10
Previous Next [ Day | 3-Days | 7-Days ]
First Last
Prev [ Day | 3-Days | 7-Days ] Next
First Last


123 => good data
MM => data is determined as missing
-- => data not received/configured
Back to Top Back to Top
3/25/2015 00:00 to 23:10 84.30 84.56 83.65 83.82 83.02 83.39
3/24/2015 23:00 to 22:10 84.53 84.79 84.25 85.03 84.34 84.06
3/24/2015 22:00 to 21:10 83.80 84.27 84.21 84.10 84.51 84.45
3/24/2015 21:00 to 20:10 84.30 84.58 85.34 84.40 84.95 84.86
3/24/2015 20:00 to 19:10 85.29 84.75 84.58 85.66 85.72 86.07
3/24/2015 19:00 to 18:10 85.34 85.77 85.81 85.75 85.21 84.75
3/24/2015 18:00 to 17:10 84.69 83.82 83.26 85.49 85.70 83.88
3/24/2015 17:00 to 16:10 84.21 83.65 84.64 84.12 85.49 84.36
3/24/2015 16:00 to 15:10 84.32 85.42 85.79 85.75 85.55 85.38
3/24/2015 15:00 to 14:10 84.75 86.22 84.84 84.43 85.42 85.46
3/24/2015 14:00 to 13:10 86.07 85.75 85.44 86.20 86.46 85.72
3/24/2015 13:00 to 12:10 85.96 85.92 86.22 85.98 86.40 85.59
3/24/2015 12:00 to 11:10 86.09 85.62 85.79 86.22 86.87 88.32
3/24/2015 11:00 to 10:10 88.02 88.00 88.00 87.35 86.89 87.41
3/24/2015 10:00 to 9:10 87.30 86.37 86.63 86.68 85.77 86.37
3/24/2015 09:00 to 8:10 85.68 85.92 85.94 86.14 85.90 85.51
3/24/2015 08:00 to 7:10 84.84 84.01 84.69 85.16 84.84 84.71
3/24/2015 07:00 to 6:10 84.71 85.49 84.60 83.99 84.69 85.12
3/24/2015 06:00 to 5:10 84.58 83.71 83.15 83.13 82.98 83.19
3/24/2015 05:00 to 4:10 81.96 82.11 83.30 82.37 81.40 81.05
3/24/2015 04:00 to 3:10 82.54 80.90 80.90 81.66 81.44 80.98
3/24/2015 03:00 to 2:10 81.59 81.37 81.44 80.55 80.77 80.68
3/24/2015 02:00 to 1:10 80.57 80.49 80.23 79.51 80.21 81.59
3/24/2015 01:00 to 0:10 81.14 81.74 81.57 80.36 82.13 81.37